sensor_id;sensor_type;location;lat;lon;timestamp;P1;durP1;ratioP1;P2;durP2;ratioP2
78875;SDS011;68253;52.506;5.486;2023-05-29T00:01:25;9.05;;;1.10;;
78875;SDS011;68253;52.506;5.486;2023-05-29T00:03:52;9.32;;;0.98;;
78875;SDS011;68253;52.506;5.486;2023-05-29T00:06:20;8.60;;;0.93;;
78875;SDS011;68253;52.506;5.486;2023-05-29T00:08:46;10.90;;;1.30;;
78875;SDS011;68253;52.506;5.486;2023-05-29T00:11:13;8.93;;;1.10;;
78875;SDS011;68253;52.506;5.486;2023-05-29T00:13:39;10.52;;;1.50;;
78875;SDS011;68253;52.506;5.486;2023-05-29T00:16:05;8.88;;;1.10;;
78875;SDS011;68253;52.506;5.486;2023-05-29T00:18:32;10.15;;;1.65;;
78875;SDS011;68253;52.506;5.486;2023-05-29T00:20:58;8.98;;;1.27;;
78875;SDS011;68253;52.506;5.486;2023-05-29T00:23:24;11.57;;;1.70;;
78875;SDS011;68253;52.506;5.486;2023-05-29T00:25:50;7.93;;;0.95;;
78875;SDS011;68253;52.506;5.486;2023-05-29T00:28:16;7.70;;;1.00;;
78875;SDS011;68253;52.506;5.486;2023-05-29T00:30:43;7.72;;;1.08;;
78875;SDS011;68253;52.506;5.486;2023-05-29T00:33:09;9.77;;;1.58;;
78875;SDS011;68253;52.506;5.486;2023-05-29T00:35:35;14.27;;;1.50;;
78875;SDS011;68253;52.506;5.486;2023-05-29T00:38:02;5.03;;;0.80;;
78875;SDS011;68253;52.506;5.486;2023-05-29T00:40:29;9.50;;;1.40;;
78875;SDS011;68253;52.506;5.486;2023-05-29T00:42:55;8.70;;;1.15;;
78875;SDS011;68253;52.506;5.486;2023-05-29T00:45:22;10.05;;;1.30;;
78875;SDS011;68253;52.506;5.486;2023-05-29T00:47:48;8.35;;;1.33;;
78875;SDS011;68253;52.506;5.486;2023-05-29T00:50:14;6.68;;;0.88;;
78875;SDS011;68253;52.506;5.486;2023-05-29T00:52:41;9.95;;;1.55;;
78875;SDS011;68253;52.506;5.486;2023-05-29T00:55:08;8.75;;;1.70;;
78875;SDS011;68253;52.506;5.486;2023-05-29T00:57:35;8.15;;;1.55;;
78875;SDS011;68253;52.506;5.486;2023-05-29T01:00:04;9.35;;;1.45;;
78875;SDS011;68253;52.506;5.486;2023-05-29T01:02:34;9.77;;;1.13;;
78875;SDS011;68253;52.506;5.486;2023-05-29T01:05:05;11.50;;;1.67;;
78875;SDS011;68253;52.506;5.486;2023-05-29T01:07:32;8.45;;;0.88;;
78875;SDS011;68253;52.506;5.486;2023-05-29T01:09:59;8.60;;;1.10;;
78875;SDS011;68253;52.506;5.486;2023-05-29T01:12:38;8.98;;;1.40;;
78875;SDS011;68253;52.506;5.486;2023-05-29T01:20:45;6.28;;;1.00;;
78875;SDS011;68253;52.506;5.486;2023-05-29T01:28:57;7.43;;;1.15;;
78875;SDS011;68253;52.506;5.486;2023-05-29T01:31:27;8.05;;;1.00;;
78875;SDS011;68253;52.506;5.486;2023-05-29T01:33:57;8.48;;;0.90;;
78875;SDS011;68253;52.506;5.486;2023-05-29T01:36:25;7.95;;;0.90;;
78875;SDS011;68253;52.506;5.486;2023-05-29T01:38:52;6.25;;;0.95;;
78875;SDS011;68253;52.506;5.486;2023-05-29T01:41:21;5.55;;;0.70;;
78875;SDS011;68253;52.506;5.486;2023-05-29T01:43:48;7.35;;;0.90;;
78875;SDS011;68253;52.506;5.486;2023-05-29T01:46:17;7.72;;;0.98;;
78875;SDS011;68253;52.506;5.486;2023-05-29T01:48:45;11.05;;;1.27;;
78875;SDS011;68253;52.506;5.486;2023-05-29T01:51:12;7.88;;;1.02;;
78875;SDS011;68253;52.506;5.486;2023-05-29T01:53:39;8.07;;;1.00;;
78875;SDS011;68253;52.506;5.486;2023-05-29T01:56:07;10.20;;;1.10;;
78875;SDS011;68253;52.506;5.486;2023-05-29T01:58:34;9.95;;;1.23;;
78875;SDS011;68253;52.506;5.486;2023-05-29T02:01:02;9.88;;;1.40;;
78875;SDS011;68253;52.506;5.486;2023-05-29T02:03:32;7.03;;;1.00;;
78875;SDS011;68253;52.506;5.486;2023-05-29T02:05:59;7.38;;;1.40;;
78875;SDS011;68253;52.506;5.486;2023-05-29T02:08:26;5.47;;;1.00;;
78875;SDS011;68253;52.506;5.486;2023-05-29T02:10:52;9.32;;;1.17;;
78875;SDS011;68253;52.506;5.486;2023-05-29T02:13:19;9.07;;;1.20;;
78875;SDS011;68253;52.506;5.486;2023-05-29T02:15:46;10.35;;;1.33;;
78875;SDS011;68253;52.506;5.486;2023-05-29T02:18:13;7.30;;;0.90;;
78875;SDS011;68253;52.506;5.486;2023-05-29T02:20:40;7.85;;;1.35;;
78875;SDS011;68253;52.506;5.486;2023-05-29T02:23:10;6.53;;;0.80;;
78875;SDS011;68253;52.506;5.486;2023-05-29T02:28:02;11.25;;;1.13;;
78875;SDS011;68253;52.506;5.486;2023-05-29T02:30:29;11.20;;;1.15;;
78875;SDS011;68253;52.506;5.486;2023-05-29T02:32:55;7.32;;;0.82;;
78875;SDS011;68253;52.506;5.486;2023-05-29T02:35:22;6.93;;;1.15;;
78875;SDS011;68253;52.506;5.486;2023-05-29T02:37:48;5.72;;;1.00;;
78875;SDS011;68253;52.506;5.486;2023-05-29T02:40:15;9.27;;;1.15;;
78875;SDS011;68253;52.506;5.486;2023-05-29T02:42:42;8.57;;;1.40;;
78875;SDS011;68253;52.506;5.486;2023-05-29T02:45:09;7.82;;;1.05;;
78875;SDS011;68253;52.506;5.486;2023-05-29T02:47:35;8.35;;;1.00;;
78875;SDS011;68253;52.506;5.486;2023-05-29T02:50:02;8.00;;;1.00;;
78875;SDS011;68253;52.506;5.486;2023-05-29T02:52:31;7.65;;;0.80;;
78875;SDS011;68253;52.506;5.486;2023-05-29T02:54:58;8.05;;;1.00;;
78875;SDS011;68253;52.506;5.486;2023-05-29T02:57:24;11.27;;;1.13;;
78875;SDS011;68253;52.506;5.486;2023-05-29T02:59:50;6.55;;;0.85;;
78875;SDS011;68253;52.506;5.486;2023-05-29T03:02:17;7.72;;;0.80;;
78875;SDS011;68253;52.506;5.486;2023-05-29T03:04:44;8.15;;;1.15;;
78875;SDS011;68253;52.506;5.486;2023-05-29T03:07:12;7.45;;;0.88;;
78875;SDS011;68253;52.506;5.486;2023-05-29T03:09:38;7.38;;;1.30;;
78875;SDS011;68253;52.506;5.486;2023-05-29T03:12:04;9.15;;;0.90;;
78875;SDS011;68253;52.506;5.486;2023-05-29T03:14:32;9.85;;;1.40;;
78875;SDS011;68253;52.506;5.486;2023-05-29T03:17:03;7.28;;;0.88;;
78875;SDS011;68253;52.506;5.486;2023-05-29T03:19:30;6.88;;;1.00;;
78875;SDS011;68253;52.506;5.486;2023-05-29T03:21:57;6.53;;;0.90;;
78875;SDS011;68253;52.506;5.486;2023-05-29T03:24:23;11.27;;;1.35;;
78875;SDS011;68253;52.506;5.486;2023-05-29T03:26:49;8.95;;;1.42;;
78875;SDS011;68253;52.506;5.486;2023-05-29T03:29:17;6.13;;;1.00;;
78875;SDS011;68253;52.506;5.486;2023-05-29T03:31:43;9.15;;;1.52;;
78875;SDS011;68253;52.506;5.486;2023-05-29T03:34:11;11.48;;;1.33;;
78875;SDS011;68253;52.506;5.486;2023-05-29T03:36:41;8.10;;;1.17;;
78875;SDS011;68253;52.506;5.486;2023-05-29T03:39:08;7.57;;;1.05;;
78875;SDS011;68253;52.506;5.486;2023-05-29T03:41:34;5.07;;;1.13;;
78875;SDS011;68253;52.506;5.486;2023-05-29T03:44:01;10.32;;;1.40;;
78875;SDS011;68253;52.506;5.486;2023-05-29T03:46:28;9.65;;;1.63;;
78875;SDS011;68253;52.506;5.486;2023-05-29T03:48:58;8.65;;;1.00;;
78875;SDS011;68253;52.506;5.486;2023-05-29T03:51:24;7.97;;;0.95;;
78875;SDS011;68253;52.506;5.486;2023-05-29T03:53:53;8.48;;;1.80;;
78875;SDS011;68253;52.506;5.486;2023-05-29T03:56:19;6.45;;;1.15;;
78875;SDS011;68253;52.506;5.486;2023-05-29T03:58:45;8.27;;;1.17;;
78875;SDS011;68253;52.506;5.486;2023-05-29T04:01:13;8.40;;;1.20;;
78875;SDS011;68253;52.506;5.486;2023-05-29T04:03:39;10.18;;;1.38;;
78875;SDS011;68253;52.506;5.486;2023-05-29T04:06:05;10.57;;;1.20;;
78875;SDS011;68253;52.506;5.486;2023-05-29T04:08:32;9.52;;;1.00;;
78875;SDS011;68253;52.506;5.486;2023-05-29T04:10:58;6.32;;;1.00;;
78875;SDS011;68253;52.506;5.486;2023-05-29T04:13:24;9.60;;;1.20;;
78875;SDS011;68253;52.506;5.486;2023-05-29T04:15:50;5.85;;;0.88;;
78875;SDS011;68253;52.506;5.486;2023-05-29T04:18:19;7.05;;;0.80;;
78875;SDS011;68253;52.506;5.486;2023-05-29T04:20:45;8.68;;;1.20;;
78875;SDS011;68253;52.506;5.486;2023-05-29T04:23:13;8.07;;;1.10;;
78875;SDS011;68253;52.506;5.486;2023-05-29T04:25:39;7.18;;;0.90;;
78875;SDS011;68253;52.506;5.486;2023-05-29T04:28:05;6.53;;;1.05;;
78875;SDS011;68253;52.506;5.486;2023-05-29T04:30:32;8.75;;;1.13;;
78875;SDS011;68253;52.506;5.486;2023-05-29T04:33:00;8.45;;;1.10;;
78875;SDS011;68253;52.506;5.486;2023-05-29T04:35:27;6.80;;;1.20;;
78875;SDS011;68253;52.506;5.486;2023-05-29T04:37:58;8.70;;;1.10;;
78875;SDS011;68253;52.506;5.486;2023-05-29T04:40:28;8.02;;;1.00;;
78875;SDS011;68253;52.506;5.486;2023-05-29T04:42:54;9.98;;;1.10;;
78875;SDS011;68253;52.506;5.486;2023-05-29T04:45:22;7.93;;;1.13;;
78875;SDS011;68253;52.506;5.486;2023-05-29T04:47:49;5.63;;;1.00;;
78875;SDS011;68253;52.506;5.486;2023-05-29T04:50:16;5.15;;;1.00;;
78875;SDS011;68253;52.506;5.486;2023-05-29T04:52:43;8.02;;;1.10;;
78875;SDS011;68253;52.506;5.486;2023-05-29T04:55:10;10.27;;;1.15;;
78875;SDS011;68253;52.506;5.486;2023-05-29T04:57:37;8.38;;;1.05;;
78875;SDS011;68253;52.506;5.486;2023-05-29T05:00:06;10.32;;;1.20;;
78875;SDS011;68253;52.506;5.486;2023-05-29T05:02:36;6.78;;;1.05;;
78875;SDS011;68253;52.506;5.486;2023-05-29T05:05:02;7.13;;;1.00;;
78875;SDS011;68253;52.506;5.486;2023-05-29T05:07:28;11.75;;;1.42;;
78875;SDS011;68253;52.506;5.486;2023-05-29T05:09:55;9.57;;;1.30;;
78875;SDS011;68253;52.506;5.486;2023-05-29T05:12:25;11.32;;;1.83;;
78875;SDS011;68253;52.506;5.486;2023-05-29T05:14:51;5.93;;;1.20;;
78875;SDS011;68253;52.506;5.486;2023-05-29T05:17:17;10.95;;;1.38;;
78875;SDS011;68253;52.506;5.486;2023-05-29T05:19:43;7.45;;;0.98;;
78875;SDS011;68253;52.506;5.486;2023-05-29T05:22:10;9.88;;;1.15;;
78875;SDS011;68253;52.506;5.486;2023-05-29T05:24:37;8.27;;;1.00;;
78875;SDS011;68253;52.506;5.486;2023-05-29T05:27:03;6.70;;;0.80;;
78875;SDS011;68253;52.506;5.486;2023-05-29T05:29:31;11.05;;;1.10;;
78875;SDS011;68253;52.506;5.486;2023-05-29T05:31:57;9.50;;;1.45;;
78875;SDS011;68253;52.506;5.486;2023-05-29T05:34:23;6.55;;;1.00;;
78875;SDS011;68253;52.506;5.486;2023-05-29T05:36:50;10.13;;;1.30;;
78875;SDS011;68253;52.506;5.486;2023-05-29T05:39:16;9.25;;;1.50;;
78875;SDS011;68253;52.506;5.486;2023-05-29T05:41:46;7.10;;;1.00;;
78875;SDS011;68253;52.506;5.486;2023-05-29T05:44:16;8.88;;;1.30;;
78875;SDS011;68253;52.506;5.486;2023-05-29T05:46:49;7.57;;;1.10;;
78875;SDS011;68253;52.506;5.486;2023-05-29T05:49:16;7.60;;;1.05;;
78875;SDS011;68253;52.506;5.486;2023-05-29T05:51:42;13.50;;;1.83;;
78875;SDS011;68253;52.506;5.486;2023-05-29T05:54:09;7.68;;;1.10;;
78875;SDS011;68253;52.506;5.486;2023-05-29T05:56:35;11.05;;;1.40;;
78875;SDS011;68253;52.506;5.486;2023-05-29T05:59:02;10.95;;;1.63;;
78875;SDS011;68253;52.506;5.486;2023-05-29T06:01:28;8.52;;;1.20;;
78875;SDS011;68253;52.506;5.486;2023-05-29T06:03:54;9.55;;;1.20;;
78875;SDS011;68253;52.506;5.486;2023-05-29T06:06:20;11.60;;;1.17;;
78875;SDS011;68253;52.506;5.486;2023-05-29T06:08:48;7.53;;;1.08;;
78875;SDS011;68253;52.506;5.486;2023-05-29T06:11:15;8.65;;;1.38;;
78875;SDS011;68253;52.506;5.486;2023-05-29T06:13:44;8.85;;;1.48;;
78875;SDS011;68253;52.506;5.486;2023-05-29T06:16:21;8.65;;;1.02;;
78875;SDS011;68253;52.506;5.486;2023-05-29T06:18:47;10.25;;;1.63;;
78875;SDS011;68253;52.506;5.486;2023-05-29T06:21:16;10.30;;;1.25;;
78875;SDS011;68253;52.506;5.486;2023-05-29T06:23:51;8.02;;;1.30;;
78875;SDS011;68253;52.506;5.486;2023-05-29T06:26:17;8.68;;;1.10;;
78875;SDS011;68253;52.506;5.486;2023-05-29T06:28:43;7.30;;;1.20;;
78875;SDS011;68253;52.506;5.486;2023-05-29T06:31:09;6.90;;;1.20;;
78875;SDS011;68253;52.506;5.486;2023-05-29T06:33:35;9.50;;;1.38;;
78875;SDS011;68253;52.506;5.486;2023-05-29T06:36:04;7.53;;;1.10;;
78875;SDS011;68253;52.506;5.486;2023-05-29T06:38:31;6.13;;;0.82;;
78875;SDS011;68253;52.506;5.486;2023-05-29T06:40:58;7.35;;;1.25;;
78875;SDS011;68253;52.506;5.486;2023-05-29T06:43:24;5.13;;;1.17;;
78875;SDS011;68253;52.506;5.486;2023-05-29T06:45:56;8.65;;;1.45;;
78875;SDS011;68253;52.506;5.486;2023-05-29T06:48:22;9.68;;;1.33;;
78875;SDS011;68253;52.506;5.486;2023-05-29T06:50:48;6.35;;;1.10;;
78875;SDS011;68253;52.506;5.486;2023-05-29T06:53:37;11.18;;;1.40;;
78875;SDS011;68253;52.506;5.486;2023-05-29T06:56:04;7.05;;;1.30;;
78875;SDS011;68253;52.506;5.486;2023-05-29T06:58:32;8.93;;;1.23;;
78875;SDS011;68253;52.506;5.486;2023-05-29T07:00:58;3.97;;;0.90;;
78875;SDS011;68253;52.506;5.486;2023-05-29T07:03:31;10.23;;;1.48;;
78875;SDS011;68253;52.506;5.486;2023-05-29T07:05:57;9.43;;;1.30;;
78875;SDS011;68253;52.506;5.486;2023-05-29T07:08:24;8.98;;;1.33;;
78875;SDS011;68253;52.506;5.486;2023-05-29T07:10:51;8.98;;;1.10;;
78875;SDS011;68253;52.506;5.486;2023-05-29T07:13:19;12.02;;;1.60;;
78875;SDS011;68253;52.506;5.486;2023-05-29T07:15:46;9.00;;;1.45;;
78875;SDS011;68253;52.506;5.486;2023-05-29T07:18:14;7.80;;;1.10;;
78875;SDS011;68253;52.506;5.486;2023-05-29T07:20:41;8.95;;;1.45;;
78875;SDS011;68253;52.506;5.486;2023-05-29T07:25:36;6.88;;;1.02;;
78875;SDS011;68253;52.506;5.486;2023-05-29T07:28:02;6.22;;;0.82;;
78875;SDS011;68253;52.506;5.486;2023-05-29T07:30:28;14.02;;;1.30;;
78875;SDS011;68253;52.506;5.486;2023-05-29T07:32:55;9.05;;;1.70;;
78875;SDS011;68253;52.506;5.486;2023-05-29T07:35:21;6.63;;;1.02;;
78875;SDS011;68253;52.506;5.486;2023-05-29T07:37:48;8.50;;;1.30;;
78875;SDS011;68253;52.506;5.486;2023-05-29T07:40:15;8.63;;;1.40;;
78875;SDS011;68253;52.506;5.486;2023-05-29T07:43:00;7.65;;;1.00;;
78875;SDS011;68253;52.506;5.486;2023-05-29T07:45:39;8.25;;;1.23;;
78875;SDS011;68253;52.506;5.486;2023-05-29T07:48:05;11.98;;;1.50;;
78875;SDS011;68253;52.506;5.486;2023-05-29T07:50:32;7.70;;;0.98;;
78875;SDS011;68253;52.506;5.486;2023-05-29T07:52:59;8.57;;;1.20;;
78875;SDS011;68253;52.506;5.486;2023-05-29T07:55:26;7.55;;;1.17;;
78875;SDS011;68253;52.506;5.486;2023-05-29T07:57:52;6.90;;;1.30;;
78875;SDS011;68253;52.506;5.486;2023-05-29T08:00:18;9.55;;;1.45;;
78875;SDS011;68253;52.506;5.486;2023-05-29T08:02:47;9.02;;;1.10;;
78875;SDS011;68253;52.506;5.486;2023-05-29T08:05:39;5.63;;;0.95;;
78875;SDS011;68253;52.506;5.486;2023-05-29T08:08:09;7.15;;;1.10;;
78875;SDS011;68253;52.506;5.486;2023-05-29T08:10:38;7.65;;;1.08;;
78875;SDS011;68253;52.506;5.486;2023-05-29T08:13:05;10.25;;;1.42;;
78875;SDS011;68253;52.506;5.486;2023-05-29T08:15:34;7.78;;;1.20;;
78875;SDS011;68253;52.506;5.486;2023-05-29T08:18:00;6.20;;;1.30;;
78875;SDS011;68253;52.506;5.486;2023-05-29T08:20:26;9.55;;;1.38;;
78875;SDS011;68253;52.506;5.486;2023-05-29T08:22:53;6.43;;;1.00;;
78875;SDS011;68253;52.506;5.486;2023-05-29T08:25:19;8.25;;;1.40;;
78875;SDS011;68253;52.506;5.486;2023-05-29T08:27:45;10.57;;;1.50;;
78875;SDS011;68253;52.506;5.486;2023-05-29T08:30:11;7.03;;;1.20;;
78875;SDS011;68253;52.506;5.486;2023-05-29T08:32:38;8.40;;;1.20;;
78875;SDS011;68253;52.506;5.486;2023-05-29T08:35:04;7.40;;;1.50;;
78875;SDS011;68253;52.506;5.486;2023-05-29T08:37:30;10.93;;;1.50;;
78875;SDS011;68253;52.506;5.486;2023-05-29T08:39:57;7.85;;;1.27;;
78875;SDS011;68253;52.506;5.486;2023-05-29T08:42:29;9.40;;;1.17;;
78875;SDS011;68253;52.506;5.486;2023-05-29T08:45:00;9.15;;;1.20;;
78875;SDS011;68253;52.506;5.486;2023-05-29T08:47:31;7.72;;;1.20;;
78875;SDS011;68253;52.506;5.486;2023-05-29T08:49:59;9.18;;;1.33;;
78875;SDS011;68253;52.506;5.486;2023-05-29T08:52:27;7.63;;;1.27;;
78875;SDS011;68253;52.506;5.486;2023-05-29T08:54:58;10.07;;;1.55;;
78875;SDS011;68253;52.506;5.486;2023-05-29T08:57:27;9.10;;;1.70;;
78875;SDS011;68253;52.506;5.486;2023-05-29T08:59:54;10.10;;;1.42;;
78875;SDS011;68253;52.506;5.486;2023-05-29T09:02:21;8.85;;;1.30;;
78875;SDS011;68253;52.506;5.486;2023-05-29T09:04:48;10.80;;;1.50;;
78875;SDS011;68253;52.506;5.486;2023-05-29T09:07:15;7.15;;;1.15;;
78875;SDS011;68253;52.506;5.486;2023-05-29T09:09:41;8.60;;;1.80;;
78875;SDS011;68253;52.506;5.486;2023-05-29T09:12:08;9.85;;;1.77;;
78875;SDS011;68253;52.506;5.486;2023-05-29T09:14:36;8.30;;;1.50;;
78875;SDS011;68253;52.506;5.486;2023-05-29T09:17:03;9.25;;;1.50;;
78875;SDS011;68253;52.506;5.486;2023-05-29T09:19:32;9.30;;;1.40;;
78875;SDS011;68253;52.506;5.486;2023-05-29T09:22:05;10.02;;;1.40;;
78875;SDS011;68253;52.506;5.486;2023-05-29T09:24:36;8.45;;;1.38;;
78875;SDS011;68253;52.506;5.486;2023-05-29T09:27:04;7.82;;;1.30;;
78875;SDS011;68253;52.506;5.486;2023-05-29T09:29:33;12.05;;;2.20;;
78875;SDS011;68253;52.506;5.486;2023-05-29T09:32:06;7.60;;;1.38;;
78875;SDS011;68253;52.506;5.486;2023-05-29T09:34:34;11.02;;;1.92;;
78875;SDS011;68253;52.506;5.486;2023-05-29T09:37:01;8.60;;;1.67;;
78875;SDS011;68253;52.506;5.486;2023-05-29T09:39:34;8.73;;;1.13;;
78875;SDS011;68253;52.506;5.486;2023-05-29T09:42:09;11.60;;;2.05;;
78875;SDS011;68253;52.506;5.486;2023-05-29T09:44:36;12.13;;;1.85;;
78875;SDS011;68253;52.506;5.486;2023-05-29T09:47:02;10.25;;;1.85;;
78875;SDS011;68253;52.506;5.486;2023-05-29T09:49:30;9.70;;;1.75;;
78875;SDS011;68253;52.506;5.486;2023-05-29T09:51:57;9.77;;;1.30;;
78875;SDS011;68253;52.506;5.486;2023-05-29T09:54:26;9.43;;;1.85;;
78875;SDS011;68253;52.506;5.486;2023-05-29T09:56:57;8.90;;;1.45;;
78875;SDS011;68253;52.506;5.486;2023-05-29T09:59:24;8.77;;;1.52;;
78875;SDS011;68253;52.506;5.486;2023-05-29T10:01:56;8.90;;;1.50;;
78875;SDS011;68253;52.506;5.486;2023-05-29T10:04:29;11.95;;;2.20;;
78875;SDS011;68253;52.506;5.486;2023-05-29T10:06:58;7.82;;;1.60;;
78875;SDS011;68253;52.506;5.486;2023-05-29T10:09:29;8.45;;;1.60;;
78875;SDS011;68253;52.506;5.486;2023-05-29T10:11:57;9.18;;;1.73;;
78875;SDS011;68253;52.506;5.486;2023-05-29T10:14:27;9.90;;;1.48;;
78875;SDS011;68253;52.506;5.486;2023-05-29T10:16:57;11.20;;;1.80;;
78875;SDS011;68253;52.506;5.486;2023-05-29T10:19:27;10.02;;;1.92;;
78875;SDS011;68253;52.506;5.486;2023-05-29T10:21:55;9.55;;;1.60;;
78875;SDS011;68253;52.506;5.486;2023-05-29T10:24:22;12.73;;;1.70;;
78875;SDS011;68253;52.506;5.486;2023-05-29T10:26:50;13.02;;;2.45;;
78875;SDS011;68253;52.506;5.486;2023-05-29T10:29:26;9.13;;;1.80;;
78875;SDS011;68253;52.506;5.486;2023-05-29T10:34:42;8.90;;;1.60;;
78875;SDS011;68253;52.506;5.486;2023-05-29T10:40:07;10.02;;;1.95;;
78875;SDS011;68253;52.506;5.486;2023-05-29T10:45:04;11.18;;;2.20;;
78875;SDS011;68253;52.506;5.486;2023-05-29T10:47:31;9.07;;;1.50;;
78875;SDS011;68253;52.506;5.486;2023-05-29T10:50:00;8.93;;;1.55;;
78875;SDS011;68253;52.506;5.486;2023-05-29T10:52:32;10.77;;;1.90;;
78875;SDS011;68253;52.506;5.486;2023-05-29T10:54:59;12.57;;;2.38;;
78875;SDS011;68253;52.506;5.486;2023-05-29T10:57:29;14.10;;;2.35;;
78875;SDS011;68253;52.506;5.486;2023-05-29T10:59:59;11.43;;;1.77;;
78875;SDS011;68253;52.506;5.486;2023-05-29T11:02:31;12.93;;;1.83;;
78875;SDS011;68253;52.506;5.486;2023-05-29T11:07:53;10.10;;;1.77;;
78875;SDS011;68253;52.506;5.486;2023-05-29T11:10:42;11.00;;;1.83;;
78875;SDS011;68253;52.506;5.486;2023-05-29T11:18:43;8.77;;;1.70;;
78875;SDS011;68253;52.506;5.486;2023-05-29T11:23:47;10.70;;;2.00;;
78875;SDS011;68253;52.506;5.486;2023-05-29T11:26:15;11.32;;;2.17;;
78875;SDS011;68253;52.506;5.486;2023-05-29T11:28:43;10.60;;;1.73;;
78875;SDS011;68253;52.506;5.486;2023-05-29T11:31:09;10.70;;;1.90;;
78875;SDS011;68253;52.506;5.486;2023-05-29T11:33:37;9.77;;;1.63;;
78875;SDS011;68253;52.506;5.486;2023-05-29T11:36:08;11.73;;;1.77;;
78875;SDS011;68253;52.506;5.486;2023-05-29T11:38:36;10.85;;;2.03;;
78875;SDS011;68253;52.506;5.486;2023-05-29T11:41:02;10.18;;;1.60;;
78875;SDS011;68253;52.506;5.486;2023-05-29T11:43:28;10.98;;;1.70;;
78875;SDS011;68253;52.506;5.486;2023-05-29T11:45:55;9.88;;;1.67;;
78875;SDS011;68253;52.506;5.486;2023-05-29T11:48:21;10.35;;;1.55;;
78875;SDS011;68253;52.506;5.486;2023-05-29T11:50:49;10.70;;;1.73;;
78875;SDS011;68253;52.506;5.486;2023-05-29T11:53:15;11.10;;;1.83;;
78875;SDS011;68253;52.506;5.486;2023-05-29T11:55:41;9.38;;;1.85;;
78875;SDS011;68253;52.506;5.486;2023-05-29T11:58:08;10.85;;;1.90;;
78875;SDS011;68253;52.506;5.486;2023-05-29T12:00:35;11.23;;;1.77;;
78875;SDS011;68253;52.506;5.486;2023-05-29T12:03:03;10.80;;;1.85;;
78875;SDS011;68253;52.506;5.486;2023-05-29T12:05:49;12.35;;;2.20;;
78875;SDS011;68253;52.506;5.486;2023-05-29T12:08:20;13.88;;;2.20;;
78875;SDS011;68253;52.506;5.486;2023-05-29T12:10:48;10.90;;;1.85;;
78875;SDS011;68253;52.506;5.486;2023-05-29T12:13:15;10.82;;;2.53;;
78875;SDS011;68253;52.506;5.486;2023-05-29T12:15:44;12.15;;;2.10;;
78875;SDS011;68253;52.506;5.486;2023-05-29T12:18:10;10.18;;;1.85;;
78875;SDS011;68253;52.506;5.486;2023-05-29T12:20:37;10.68;;;1.73;;
78875;SDS011;68253;52.506;5.486;2023-05-29T12:23:03;11.55;;;2.08;;
78875;SDS011;68253;52.506;5.486;2023-05-29T12:25:31;11.60;;;1.85;;
78875;SDS011;68253;52.506;5.486;2023-05-29T12:28:02;9.95;;;1.67;;
78875;SDS011;68253;52.506;5.486;2023-05-29T12:30:28;11.55;;;2.08;;
78875;SDS011;68253;52.506;5.486;2023-05-29T12:32:54;11.40;;;1.85;;
78875;SDS011;68253;52.506;5.486;2023-05-29T12:35:21;10.45;;;2.10;;
78875;SDS011;68253;52.506;5.486;2023-05-29T12:40:22;8.77;;;1.70;;
78875;SDS011;68253;52.506;5.486;2023-05-29T12:42:54;9.63;;;1.67;;
78875;SDS011;68253;52.506;5.486;2023-05-29T12:45:21;10.32;;;1.70;;
78875;SDS011;68253;52.506;5.486;2023-05-29T12:47:54;8.65;;;1.80;;
78875;SDS011;68253;52.506;5.486;2023-05-29T12:50:25;10.73;;;1.77;;
78875;SDS011;68253;52.506;5.486;2023-05-29T12:53:02;10.52;;;1.75;;
78875;SDS011;68253;52.506;5.486;2023-05-29T12:55:31;9.93;;;1.90;;
78875;SDS011;68253;52.506;5.486;2023-05-29T12:58:05;10.52;;;1.80;;
78875;SDS011;68253;52.506;5.486;2023-05-29T13:00:36;12.73;;;2.10;;
78875;SDS011;68253;52.506;5.486;2023-05-29T13:03:04;8.68;;;1.60;;
78875;SDS011;68253;52.506;5.486;2023-05-29T13:05:31;10.82;;;1.83;;
78875;SDS011;68253;52.506;5.486;2023-05-29T13:07:58;11.90;;;2.10;;
78875;SDS011;68253;52.506;5.486;2023-05-29T13:10:25;10.05;;;2.03;;
78875;SDS011;68253;52.506;5.486;2023-05-29T13:12:53;9.55;;;1.70;;
78875;SDS011;68253;52.506;5.486;2023-05-29T13:15:23;8.95;;;1.83;;
78875;SDS011;68253;52.506;5.486;2023-05-29T13:17:50;13.48;;;2.10;;
78875;SDS011;68253;52.506;5.486;2023-05-29T13:20:18;9.63;;;1.73;;
78875;SDS011;68253;52.506;5.486;2023-05-29T13:22:45;8.68;;;1.95;;
78875;SDS011;68253;52.506;5.486;2023-05-29T13:25:12;10.07;;;1.80;;
78875;SDS011;68253;52.506;5.486;2023-05-29T13:27:40;7.70;;;1.73;;
78875;SDS011;68253;52.506;5.486;2023-05-29T13:30:08;9.60;;;1.55;;
78875;SDS011;68253;52.506;5.486;2023-05-29T13:32:36;8.80;;;1.75;;
78875;SDS011;68253;52.506;5.486;2023-05-29T13:35:02;8.88;;;1.73;;
78875;SDS011;68253;52.506;5.486;2023-05-29T13:37:29;7.65;;;1.30;;
78875;SDS011;68253;52.506;5.486;2023-05-29T13:39:55;8.90;;;1.50;;
78875;SDS011;68253;52.506;5.486;2023-05-29T13:42:21;10.07;;;1.70;;
78875;SDS011;68253;52.506;5.486;2023-05-29T13:44:48;9.52;;;1.50;;
78875;SDS011;68253;52.506;5.486;2023-05-29T13:47:14;8.63;;;1.60;;
78875;SDS011;68253;52.506;5.486;2023-05-29T13:49:41;7.35;;;1.48;;
78875;SDS011;68253;52.506;5.486;2023-05-29T13:52:07;8.98;;;1.67;;
78875;SDS011;68253;52.506;5.486;2023-05-29T13:54:33;8.38;;;1.52;;
78875;SDS011;68253;52.506;5.486;2023-05-29T13:57:05;11.90;;;2.40;;
78875;SDS011;68253;52.506;5.486;2023-05-29T13:59:32;11.00;;;2.08;;
78875;SDS011;68253;52.506;5.486;2023-05-29T14:02:00;9.07;;;1.65;;
78875;SDS011;68253;52.506;5.486;2023-05-29T14:04:28;12.63;;;1.80;;
78875;SDS011;68253;52.506;5.486;2023-05-29T14:06:55;8.80;;;1.88;;
78875;SDS011;68253;52.506;5.486;2023-05-29T14:09:22;13.13;;;2.00;;
78875;SDS011;68253;52.506;5.486;2023-05-29T14:11:57;12.40;;;2.15;;
78875;SDS011;68253;52.506;5.486;2023-05-29T14:14:24;10.35;;;1.98;;
78875;SDS011;68253;52.506;5.486;2023-05-29T14:16:50;9.38;;;1.63;;
78875;SDS011;68253;52.506;5.486;2023-05-29T14:19:17;10.35;;;1.58;;
78875;SDS011;68253;52.506;5.486;2023-05-29T14:21:44;8.60;;;1.60;;
78875;SDS011;68253;52.506;5.486;2023-05-29T14:24:11;10.45;;;1.83;;
78875;SDS011;68253;52.506;5.486;2023-05-29T14:26:38;8.48;;;1.60;;
78875;SDS011;68253;52.506;5.486;2023-05-29T14:29:05;9.02;;;1.50;;
78875;SDS011;68253;52.506;5.486;2023-05-29T14:31:31;7.60;;;1.65;;
78875;SDS011;68253;52.506;5.486;2023-05-29T14:33:57;8.25;;;1.40;;
78875;SDS011;68253;52.506;5.486;2023-05-29T14:36:24;10.00;;;1.85;;
78875;SDS011;68253;52.506;5.486;2023-05-29T14:38:50;9.50;;;1.50;;
78875;SDS011;68253;52.506;5.486;2023-05-29T14:41:16;10.85;;;1.63;;
78875;SDS011;68253;52.506;5.486;2023-05-29T14:43:42;11.32;;;1.70;;
78875;SDS011;68253;52.506;5.486;2023-05-29T14:46:09;9.38;;;1.38;;
78875;SDS011;68253;52.506;5.486;2023-05-29T14:48:35;7.85;;;1.20;;
78875;SDS011;68253;52.506;5.486;2023-05-29T14:51:01;11.45;;;1.73;;
78875;SDS011;68253;52.506;5.486;2023-05-29T14:53:27;9.55;;;1.65;;
78875;SDS011;68253;52.506;5.486;2023-05-29T14:55:53;7.10;;;1.33;;
78875;SDS011;68253;52.506;5.486;2023-05-29T14:58:21;11.05;;;2.00;;
78875;SDS011;68253;52.506;5.486;2023-05-29T15:00:47;8.65;;;1.73;;
78875;SDS011;68253;52.506;5.486;2023-05-29T15:03:13;8.85;;;1.55;;
78875;SDS011;68253;52.506;5.486;2023-05-29T15:05:40;11.70;;;1.90;;
78875;SDS011;68253;52.506;5.486;2023-05-29T15:08:06;9.27;;;1.58;;
78875;SDS011;68253;52.506;5.486;2023-05-29T15:10:32;8.48;;;1.33;;
78875;SDS011;68253;52.506;5.486;2023-05-29T15:12:58;7.30;;;1.25;;
78875;SDS011;68253;52.506;5.486;2023-05-29T15:15:26;10.27;;;1.55;;
78875;SDS011;68253;52.506;5.486;2023-05-29T15:17:53;9.93;;;1.63;;
78875;SDS011;68253;52.506;5.486;2023-05-29T15:20:22;11.50;;;1.90;;
78875;SDS011;68253;52.506;5.486;2023-05-29T15:22:48;7.90;;;1.40;;
78875;SDS011;68253;52.506;5.486;2023-05-29T15:25:16;9.65;;;1.65;;